Stockholm, Sweden

5:50 PM CEST on April 26, 2017 (GMT +0200)
Norr Mälarstrand | | Change Station

Elev 52 ft 59.33 °N, 18.05 °E | Updated 7 minutes ago

Clear
Clear
47.7 °F
Feels Like 45 °F
N
5.6
Wind Variable Wind from WSW
Gusts 8.7 mph

Today
High -- | Low -- °F
--% Chance of Precip.
Yesterday
High -- | Low -- °F
Precip. -- in
Pressure 29.68 in
Visibility -9999.0 miles
Clouds
Windchill 45 °F
Dew Point 32 °F
Humidity 55%
Rainfall Not available.
Snow Depth Not available.
5:02 AM 8:30 PM
New Moon, 0% visible
METAR ESSB 261520Z 27010KT 240V310 CAVOK 07/M01 Q1005
Pressure 29.68 in
Visibility -9999.0 miles
Clouds
Windchill 45 °F
Dew Point 32 °F
Humidity 55%
Rainfall Not available.
Snow Depth Not available.
5:02 AM 8:30 PM
New Moon, 0% visible
METAR ESSB 261520Z 27010KT 240V310 CAVOK 07/M01 Q1005

Get Severe Weather Alerts

Thanks for signing up!

Be on the lookout for a verification email in your inbox.

You'll start receiving the daily forecast at 8 AM.

×

10-Day Weather Forecast

×

Almanac

Astronomy

Apr. 26, 2017 Rise Set
Actual Time
Civil Twilight
Nautical Twilight
Astronomical Twilight
Moon
Length of Visible Light
Length of Day
Tomorrow will be .
, % of the Moon is Illuminated

Today's Extremes

Country Highs Country Lows

Community

WunderPhotos

WunderBlog® & News

Nearby

Air Quality

  Air Quality AQ Index Pollutant
Not available.

Snow Depth

Station Depth Elevation

Earthquake Activity

City Distance Mag. Time & Date
Minimum magnitude displayed is 2.5.

Coastal Water Temperatures

Place Temperature

Stations

Nearby Weather Stations

Station Location Temp. Windchill Dew Point Humidity Wind Precip. Elev Updated Type